createdAt,value
2023-02-19T00:03:08.299Z,22.70
2023-02-19T00:08:12.759Z,16.97
2023-02-19T00:13:16.312Z,22.70
2023-02-19T00:18:19.301Z,26.07
2023-02-19T00:23:23.763Z,22.10
2023-02-19T00:28:26.820Z,26.53
2023-02-19T00:33:30.130Z,28.77
2023-02-19T00:38:37.999Z,28.27
2023-02-19T00:43:41.089Z,25.17
2023-02-19T00:48:46.638Z,27.47
2023-02-19T00:53:51.222Z,23.90
2023-02-19T00:58:54.505Z,24.67
2023-02-19T01:03:57.565Z,18.10
2023-02-19T01:09:01.792Z,18.30
2023-02-19T01:14:05.210Z,23.53
2023-02-19T01:19:08.816Z,20.67
2023-02-19T01:24:13.425Z,20.40
2023-02-19T01:29:16.433Z,18.30
2023-02-19T01:34:19.479Z,20.23
2023-02-19T01:39:23.886Z,14.90
2023-02-19T01:45:04.348Z,14.07
2023-02-19T01:50:08.071Z,14.57
2023-02-19T01:55:14.044Z,20.87
2023-02-19T02:00:17.946Z,13.90
2023-02-19T02:05:31.131Z,11.43
2023-02-19T02:10:35.706Z,18.00
2023-02-19T02:15:49.906Z,17.23
2023-02-19T02:21:26.324Z,8.97
2023-02-19T02:26:45.951Z,10.50
2023-02-19T02:31:55.101Z,13.20
2023-02-19T02:36:59.343Z,11.50
2023-02-19T02:42:20.951Z,12.20
2023-02-19T02:47:43.172Z,9.50
2023-02-19T02:53:07.204Z,9.13
2023-02-19T02:58:11.822Z,10.77
2023-02-19T03:03:22.273Z,12.97
2023-02-19T03:08:30.263Z,14.07
2023-02-19T03:13:56.485Z,11.53
2023-02-19T03:19:19.268Z,15.87
2023-02-19T03:24:45.687Z,14.70
2023-02-19T03:29:51.481Z,12.80
2023-02-19T03:35:01.118Z,16.10
2023-02-19T03:40:04.952Z,11.50
2023-02-19T03:45:26.036Z,10.77
2023-02-19T03:50:41.816Z,15.90
2023-02-19T03:55:48.929Z,14.07
2023-02-19T04:00:59.301Z,12.83
2023-02-19T04:06:06.976Z,11.40
2023-02-19T04:11:11.459Z,12.17
2023-02-19T04:16:21.509Z,11.03
2023-02-19T04:21:26.928Z,11.50
2023-02-19T04:26:30.760Z,11.60
2023-02-19T04:31:36.489Z,12.83
2023-02-19T04:36:40.896Z,9.80
2023-02-19T04:41:44.143Z,11.10
2023-02-19T04:46:47.150Z,10.43
2023-02-19T04:51:51.581Z,10.37
2023-02-19T04:56:54.601Z,12.83
2023-02-19T05:01:58.050Z,9.70
2023-02-19T05:07:02.403Z,9.43
2023-02-19T05:12:05.674Z,10.60
2023-02-19T05:17:08.687Z,13.57
2023-02-19T05:22:13.128Z,7.37
2023-02-19T05:27:16.210Z,11.47
2023-02-19T05:32:19.236Z,12.53
2023-02-19T05:37:23.679Z,14.30
2023-02-19T05:42:26.694Z,10.50
2023-02-19T05:47:29.654Z,10.80
2023-02-19T05:52:34.246Z,8.83
2023-02-19T05:57:43.509Z,6.90
2023-02-19T06:02:47.204Z,8.70
2023-02-19T06:07:51.724Z,7.00
2023-02-19T06:12:54.780Z,12.07
2023-02-19T06:17:57.726Z,9.83
2023-02-19T06:23:02.434Z,8.47
2023-02-19T06:28:05.997Z,9.50
2023-02-19T06:33:08.923Z,7.67
2023-02-19T06:38:13.312Z,6.57
2023-02-19T06:43:16.329Z,8.00
2023-02-19T06:48:19.336Z,9.07
2023-02-19T06:53:24.630Z,10.23
2023-02-19T06:58:28.421Z,9.30
2023-02-19T07:03:31.372Z,10.30
2023-02-19T07:08:35.800Z,11.63
2023-02-19T07:13:38.795Z,11.10
2023-02-19T07:18:42.312Z,10.73
2023-02-19T07:23:47.212Z,10.83
2023-02-19T07:28:52.030Z,9.33
2023-02-19T07:33:55.723Z,9.70
2023-02-19T07:39:00.939Z,10.20
2023-02-19T07:44:03.885Z,11.00
2023-02-19T07:49:07.763Z,12.60
2023-02-19T07:54:12.614Z,10.90
2023-02-19T07:59:15.924Z,10.87
2023-02-19T08:04:18.992Z,12.47
2023-02-19T08:09:23.437Z,9.97
2023-02-19T08:14:27.111Z,9.97
2023-02-19T08:19:30.153Z,11.20
2023-02-19T08:24:34.620Z,10.80
2023-02-19T08:29:37.834Z,11.17
2023-02-19T08:34:40.965Z,10.97
2023-02-19T08:39:45.491Z,8.13
2023-02-19T08:44:48.510Z,9.77
2023-02-19T08:49:51.622Z,9.27
2023-02-19T08:54:56.502Z,10.77
2023-02-19T08:59:59.977Z,7.40
2023-02-19T09:05:03.310Z,11.00
2023-02-19T09:10:08.959Z,8.93
2023-02-19T09:15:11.954Z,9.73
2023-02-19T09:20:15.034Z,9.57
2023-02-19T09:25:22.284Z,11.17
2023-02-19T09:30:25.523Z,12.10
2023-02-19T09:35:28.527Z,10.30
2023-02-19T09:40:32.966Z,7.47
2023-02-19T09:45:39.189Z,11.50
2023-02-19T09:50:47.748Z,14.80
2023-02-19T09:55:53.927Z,8.70
2023-02-19T10:01:00.704Z,11.83
2023-02-19T10:06:11.266Z,9.80
2023-02-19T10:11:17.152Z,10.17
2023-02-19T10:16:24.964Z,9.10
2023-02-19T10:21:29.152Z,9.80
2023-02-19T10:26:36.717Z,9.80
2023-02-19T10:31:40.403Z,9.00
2023-02-19T10:36:45.344Z,9.10
2023-02-19T10:41:50.632Z,5.90
2023-02-19T10:46:55.602Z,5.77
2023-02-19T10:52:05.611Z,2.03
2023-02-19T10:57:30.176Z,3.53
2023-02-19T11:02:33.898Z,1.90
2023-02-19T11:07:38.477Z,2.50
2023-02-19T11:12:43.056Z,1.30
2023-02-19T11:17:46.475Z,2.33
2023-02-19T11:22:50.137Z,1.57
2023-02-19T11:28:00.428Z,2.60
2023-02-19T11:33:31.059Z,3.80
2023-02-19T11:38:33.986Z,2.27
2023-02-19T11:44:05.110Z,4.03
2023-02-19T11:49:25.260Z,4.07
2023-02-19T11:54:48.793Z,6.47
2023-02-19T12:00:01.447Z,4.87
2023-02-19T12:05:27.330Z,5.30
2023-02-19T12:10:39.941Z,5.00
2023-02-19T12:16:00.787Z,2.47
2023-02-19T12:21:17.679Z,4.00
2023-02-19T12:26:26.019Z,2.07
2023-02-19T12:32:00.168Z,2.97
2023-02-19T12:37:18.245Z,2.97
2023-02-19T12:42:36.839Z,2.90
2023-02-19T12:47:43.601Z,3.10
2023-02-19T12:52:51.703Z,5.00
2023-02-19T12:57:58.764Z,2.20
2023-02-19T13:03:10.718Z,3.90
2023-02-19T13:08:21.671Z,2.60
2023-02-19T13:13:30.277Z,2.93
2023-02-19T13:18:41.325Z,2.03
2023-02-19T13:24:00.160Z,2.20
2023-02-19T13:29:17.665Z,2.67
2023-02-19T13:34:35.170Z,1.87
2023-02-19T13:39:38.863Z,2.73
2023-02-19T13:44:42.457Z,3.43
2023-02-19T13:49:50.188Z,1.53
2023-02-19T13:54:53.131Z,4.80
2023-02-19T13:59:58.019Z,4.80
2023-02-19T14:05:05.190Z,1.40
2023-02-19T14:10:14.015Z,3.13
2023-02-19T14:15:45.252Z,3.80
2023-02-19T14:20:49.686Z,3.93
2023-02-19T14:26:03.688Z,3.60
2023-02-19T14:31:18.017Z,4.13
2023-02-19T14:36:48.658Z,3.83
2023-02-19T14:41:54.194Z,4.23
2023-02-19T14:47:00.902Z,5.03
2023-02-19T14:52:13.100Z,4.30
2023-02-19T14:57:20.851Z,4.20
2023-02-19T15:02:25.978Z,4.13
2023-02-19T15:07:32.795Z,6.33
2023-02-19T15:12:42.857Z,3.33
2023-02-19T15:17:46.436Z,3.10
2023-02-19T15:22:51.276Z,2.97
2023-02-19T15:27:54.234Z,3.77
2023-02-19T15:32:58.937Z,3.27
2023-02-19T15:38:03.377Z,3.07
2023-02-19T15:43:06.486Z,2.90
2023-02-19T15:48:13.300Z,3.37
2023-02-19T15:53:21.087Z,4.77
2023-02-19T15:58:28.755Z,3.03
2023-02-19T16:03:32.712Z,3.40
2023-02-19T16:08:38.651Z,2.50
2023-02-19T16:13:41.725Z,1.60
2023-02-19T16:18:47.573Z,0.70
2023-02-19T16:23:55.126Z,0.80
2023-02-19T16:28:58.162Z,1.20
2023-02-19T16:34:18.386Z,1.23
2023-02-19T16:39:26.383Z,0.80
2023-02-19T16:44:37.541Z,0.80
2023-02-19T16:49:42.558Z,0.90
2023-02-19T16:54:48.930Z,1.00
2023-02-19T16:59:52.008Z,1.00
2023-02-19T17:04:55.870Z,1.37
2023-02-19T17:10:00.379Z,1.30
2023-02-19T17:15:03.488Z,1.87
2023-02-19T17:20:20.568Z,1.63
2023-02-19T17:25:25.088Z,1.23
2023-02-19T17:30:30.490Z,1.17
2023-02-19T17:35:33.704Z,1.00
2023-02-19T17:40:38.810Z,0.77
2023-02-19T17:45:41.874Z,1.97
2023-02-19T17:50:44.967Z,1.00
2023-02-19T17:55:49.385Z,1.30
2023-02-19T18:00:52.469Z,1.00
2023-02-19T18:05:55.575Z,1.27
2023-02-19T18:11:00.404Z,1.33
2023-02-19T18:16:03.470Z,1.90
2023-02-19T18:21:10.140Z,1.80
2023-02-19T18:26:20.154Z,2.60
2023-02-19T18:31:23.305Z,3.57
2023-02-19T18:36:26.479Z,2.60
2023-02-19T18:41:31.020Z,4.90
2023-02-19T18:46:34.165Z,2.83
2023-02-19T18:51:37.118Z,5.03
2023-02-19T18:56:45.454Z,1.50
2023-02-19T19:01:48.491Z,2.57
2023-02-19T19:06:51.690Z,2.77
2023-02-19T19:11:59.018Z,1.97
2023-02-19T19:17:02.143Z,3.03
2023-02-19T19:22:05.120Z,2.10
2023-02-19T19:27:09.703Z,2.13
2023-02-19T19:32:12.852Z,1.70
2023-02-19T19:37:17.535Z,2.03
2023-02-19T19:42:22.129Z,4.20
2023-02-19T19:47:25.541Z,4.77
2023-02-19T19:52:30.368Z,4.23
2023-02-19T19:57:34.845Z,2.93
2023-02-19T20:02:37.856Z,1.97
2023-02-19T20:07:41.300Z,1.40
2023-02-19T20:12:45.898Z,1.70
2023-02-19T20:17:49.113Z,1.53
2023-02-19T20:22:52.920Z,1.53
2023-02-19T20:27:57.416Z,3.10
2023-02-19T20:33:00.521Z,2.30
2023-02-19T20:38:03.548Z,2.40
2023-02-19T20:43:08.023Z,3.40
2023-02-19T20:48:11.253Z,2.20
2023-02-19T20:53:14.202Z,2.33
2023-02-19T20:58:19.845Z,2.77
2023-02-19T21:03:23.977Z,3.00
2023-02-19T21:08:27.248Z,6.83
2023-02-19T21:13:32.059Z,5.50
2023-02-19T21:18:35.287Z,4.93
2023-02-19T21:23:38.301Z,4.87
2023-02-19T21:28:42.598Z,4.80
2023-02-19T21:33:45.728Z,3.80
2023-02-19T21:38:48.734Z,5.20
2023-02-19T21:43:54.892Z,4.47
2023-02-19T21:48:58.280Z,6.03
2023-02-19T21:54:01.522Z,5.97
2023-02-19T21:59:05.888Z,5.47
2023-02-19T22:04:10.242Z,4.37
2023-02-19T22:09:14.917Z,4.63
2023-02-19T22:14:19.524Z,6.73
2023-02-19T22:19:22.595Z,6.43
2023-02-19T22:24:25.571Z,6.93
2023-02-19T22:29:29.995Z,5.90
2023-02-19T22:34:33.102Z,9.07
2023-02-19T22:39:36.447Z,6.63
2023-02-19T22:44:43.723Z,8.77
2023-02-19T22:49:47.027Z,7.80
2023-02-19T22:54:50.085Z,7.57
2023-02-19T22:59:54.541Z,7.53
2023-02-19T23:04:57.468Z,8.50
2023-02-19T23:10:00.536Z,7.13
2023-02-19T23:15:05.991Z,7.33
2023-02-19T23:20:10.156Z,7.83
2023-02-19T23:25:13.257Z,10.03
2023-02-19T23:30:18.266Z,8.60
2023-02-19T23:35:21.303Z,7.23
2023-02-19T23:40:24.781Z,9.00
2023-02-19T23:45:29.762Z,8.27
2023-02-19T23:50:32.768Z,9.60
2023-02-19T23:55:35.880Z,12.50
